createdAt,value
2023-02-15T00:01:36.257Z,16.40
2023-02-15T00:04:03.584Z,13.40
2023-02-15T00:06:30.926Z,16.50
2023-02-15T00:08:58.064Z,14.00
2023-02-15T00:11:24.600Z,13.30
2023-02-15T00:13:51.064Z,15.00
2023-02-15T00:16:17.572Z,14.00
2023-02-15T00:18:44.112Z,14.50
2023-02-15T00:21:10.899Z,16.20
2023-02-15T00:23:37.646Z,17.30
2023-02-15T00:26:12.129Z,16.60
2023-02-15T00:28:39.278Z,15.20
2023-02-15T00:31:07.799Z,16.60
2023-02-15T00:33:34.930Z,14.10
2023-02-15T00:36:02.519Z,14.70
2023-02-15T00:38:30.360Z,16.70
2023-02-15T00:40:58.831Z,15.90
2023-02-15T00:43:26.543Z,16.60
2023-02-15T00:45:53.153Z,15.70
2023-02-15T00:48:20.430Z,16.60
2023-02-15T00:50:47.988Z,17.10
2023-02-15T00:53:14.540Z,15.90
2023-02-15T00:55:41.083Z,16.80
2023-02-15T00:58:08.551Z,17.00
2023-02-15T01:00:35.640Z,18.40
2023-02-15T01:03:02.531Z,18.30
2023-02-15T01:05:29.410Z,17.30
2023-02-15T01:07:56.465Z,18.00
2023-02-15T01:10:23.321Z,17.60
2023-02-15T01:12:51.987Z,17.60
2023-02-15T01:15:19.252Z,19.20
2023-02-15T01:17:46.080Z,17.10
2023-02-15T01:20:12.969Z,17.50
2023-02-15T01:22:39.578Z,16.60
2023-02-15T01:25:06.438Z,16.80
2023-02-15T01:27:32.976Z,16.50
2023-02-15T01:29:59.463Z,17.40
2023-02-15T01:32:26.181Z,17.20
2023-02-15T01:34:52.648Z,16.30
2023-02-15T01:37:19.257Z,17.20
2023-02-15T01:39:45.785Z,16.00
2023-02-15T01:42:12.840Z,17.90
2023-02-15T01:44:54.603Z,17.50
2023-02-15T01:50:14.021Z,15.30
2023-02-15T01:52:49.209Z,16.40
2023-02-15T01:55:16.526Z,17.30
2023-02-15T01:57:44.373Z,18.00
2023-02-15T02:00:11.506Z,17.80
2023-02-15T02:02:38.107Z,15.90
2023-02-15T02:05:07.720Z,18.70
2023-02-15T02:07:37.318Z,16.90
2023-02-15T02:10:06.144Z,18.90
2023-02-15T02:12:33.032Z,19.80
2023-02-15T02:15:00.003Z,17.40
2023-02-15T02:17:41.717Z,16.80
2023-02-15T02:22:40.417Z,13.80
2023-02-15T02:25:44.544Z,16.60
2023-02-15T02:28:19.861Z,15.60
2023-02-15T02:31:01.607Z,18.00
2023-02-15T02:36:20.601Z,12.10
2023-02-15T02:39:13.647Z,12.80
2023-02-15T02:41:53.724Z,13.30
2023-02-15T02:44:25.917Z,13.00
2023-02-15T02:47:16.869Z,18.10
2023-02-15T02:49:44.393Z,18.60
2023-02-15T02:52:38.266Z,19.10
2023-02-15T02:55:10.587Z,18.30
2023-02-15T02:57:40.568Z,18.60
2023-02-15T03:00:09.539Z,18.50
2023-02-15T03:02:41.551Z,17.40
2023-02-15T03:05:15.425Z,18.20
2023-02-15T03:07:43.780Z,18.30
2023-02-15T03:10:10.995Z,20.00
2023-02-15T03:12:40.488Z,19.80
2023-02-15T03:15:20.153Z,19.30
2023-02-15T03:17:52.175Z,20.50
2023-02-15T03:20:23.538Z,19.90
2023-02-15T03:22:54.342Z,20.30
2023-02-15T03:25:28.612Z,21.00
2023-02-15T03:27:59.498Z,18.80
2023-02-15T03:30:27.679Z,20.60
2023-02-15T03:32:54.633Z,21.30
2023-02-15T03:35:26.581Z,20.40
2023-02-15T03:37:59.626Z,20.10
2023-02-15T03:40:54.625Z,19.70
2023-02-15T03:43:39.850Z,19.70
2023-02-15T03:46:24.856Z,19.80
2023-02-15T03:49:08.027Z,18.10
2023-02-15T03:51:38.801Z,18.90
2023-02-15T03:54:13.492Z,20.60
2023-02-15T03:56:42.429Z,19.70
2023-02-15T03:59:09.381Z,20.90
2023-02-15T04:01:47.258Z,20.20
2023-02-15T04:04:20.290Z,22.00
2023-02-15T04:06:46.821Z,20.20
2023-02-15T04:09:13.873Z,20.60
2023-02-15T04:11:40.336Z,21.10
2023-02-15T04:14:06.874Z,20.70
2023-02-15T04:16:33.431Z,20.50
2023-02-15T04:18:59.961Z,20.50
2023-02-15T04:21:28.483Z,21.20
2023-02-15T04:23:55.038Z,21.40
2023-02-15T04:26:21.510Z,21.80
2023-02-15T04:28:48.008Z,18.80
2023-02-15T04:31:14.593Z,22.60
2023-02-15T04:33:41.127Z,20.80
2023-02-15T04:36:07.653Z,20.60
2023-02-15T04:38:34.211Z,20.70
2023-02-15T04:41:00.686Z,21.20
2023-02-15T04:43:27.187Z,22.70
2023-02-15T04:45:53.692Z,20.00
2023-02-15T04:48:20.210Z,19.10
2023-02-15T04:50:46.701Z,22.40
2023-02-15T04:53:13.188Z,21.30
2023-02-15T04:55:39.717Z,21.70
2023-02-15T04:58:06.258Z,20.10
2023-02-15T05:00:32.828Z,21.40
2023-02-15T05:02:59.627Z,19.80
2023-02-15T05:05:26.310Z,20.50
2023-02-15T05:07:52.758Z,19.70
2023-02-15T05:10:19.293Z,20.60
2023-02-15T05:12:45.807Z,21.90
2023-02-15T05:15:12.546Z,21.30
2023-02-15T05:17:39.445Z,20.30
2023-02-15T05:20:06.611Z,19.30
2023-02-15T05:22:33.316Z,19.70
2023-02-15T05:24:59.829Z,21.50
2023-02-15T05:27:26.508Z,20.90
2023-02-15T05:29:53.118Z,22.30
2023-02-15T05:32:19.755Z,20.40
2023-02-15T05:34:46.318Z,20.80
2023-02-15T05:37:12.841Z,21.40
2023-02-15T05:39:39.388Z,21.80
2023-02-15T05:42:05.873Z,19.60
2023-02-15T05:44:32.372Z,20.20
2023-02-15T05:46:58.857Z,19.40
2023-02-15T05:49:25.356Z,20.90
2023-02-15T05:51:51.878Z,20.50
2023-02-15T05:54:18.334Z,20.60
2023-02-15T05:56:44.908Z,22.20
2023-02-15T05:59:11.449Z,21.60
2023-02-15T06:01:37.940Z,20.90
2023-02-15T06:04:04.523Z,21.60
2023-02-15T06:06:31.004Z,19.80
2023-02-15T06:08:57.523Z,20.50
2023-02-15T06:11:24.032Z,20.00
2023-02-15T06:13:50.583Z,21.20
2023-02-15T06:16:17.224Z,20.80
2023-02-15T06:18:43.862Z,22.60
2023-02-15T06:21:10.541Z,22.20
2023-02-15T06:23:37.134Z,20.80
2023-02-15T06:26:03.891Z,21.30
2023-02-15T06:28:30.633Z,20.70
2023-02-15T06:30:57.303Z,22.50
2023-02-15T06:33:24.064Z,23.50
2023-02-15T06:35:50.545Z,23.50
2023-02-15T06:38:17.436Z,21.20
2023-02-15T06:40:43.952Z,20.00
2023-02-15T06:43:10.440Z,19.20
2023-02-15T06:45:37.040Z,19.60
2023-02-15T06:48:03.703Z,20.20
2023-02-15T06:50:30.330Z,18.70
2023-02-15T06:52:58.413Z,18.40
2023-02-15T06:55:25.364Z,21.20
2023-02-15T06:57:52.170Z,22.20
2023-02-15T07:00:19.173Z,22.50
2023-02-15T07:02:45.944Z,24.10
2023-02-15T07:05:12.633Z,23.60
2023-02-15T07:07:39.198Z,23.70
2023-02-15T07:10:06.467Z,26.40
2023-02-15T07:12:32.985Z,25.40
2023-02-15T07:14:59.617Z,22.80
2023-02-15T07:17:35.352Z,18.10
2023-02-15T07:20:05.221Z,15.70
2023-02-15T07:22:31.694Z,20.70
2023-02-15T07:24:58.151Z,23.90
2023-02-15T07:27:24.725Z,20.20
2023-02-15T07:29:51.261Z,17.30
2023-02-15T07:32:17.741Z,19.60
2023-02-15T07:34:44.272Z,17.90
2023-02-15T07:37:10.775Z,19.80
2023-02-15T07:39:37.284Z,16.50
2023-02-15T07:42:03.863Z,20.00
2023-02-15T07:44:30.324Z,18.20
2023-02-15T07:46:56.838Z,19.60
2023-02-15T07:49:23.322Z,18.70
2023-02-15T07:51:50.046Z,19.50
2023-02-15T07:54:16.518Z,18.00
2023-02-15T07:56:43.008Z,19.30
2023-02-15T07:59:10.332Z,19.10
2023-02-15T08:01:39.363Z,18.90
2023-02-15T08:04:08.232Z,18.80
2023-02-15T08:06:36.612Z,20.50
2023-02-15T08:09:08.371Z,20.40
2023-02-15T08:11:37.416Z,18.80
2023-02-15T08:14:09.764Z,18.10
2023-02-15T08:16:50.441Z,19.80
2023-02-15T08:19:24.603Z,19.40
2023-02-15T08:21:56.664Z,21.10
2023-02-15T08:24:25.009Z,18.50
2023-02-15T08:26:52.915Z,19.10
2023-02-15T08:29:21.845Z,19.30
2023-02-15T08:31:48.858Z,17.90
2023-02-15T08:34:18.449Z,18.60
2023-02-15T08:36:45.666Z,19.70
2023-02-15T08:39:14.088Z,18.40
2023-02-15T08:41:43.869Z,17.80
2023-02-15T08:44:10.643Z,19.90
2023-02-15T08:46:41.549Z,19.80
2023-02-15T08:49:08.842Z,20.60
2023-02-15T08:51:37.868Z,19.70
2023-02-15T08:54:07.800Z,17.50
2023-02-15T08:56:37.069Z,17.20
2023-02-15T08:59:05.105Z,18.00
2023-02-15T09:01:34.348Z,17.90
2023-02-15T09:04:03.862Z,18.50
2023-02-15T09:06:30.618Z,18.90
2023-02-15T09:08:57.518Z,18.00
2023-02-15T09:11:26.855Z,17.70
2023-02-15T09:13:55.797Z,17.20
2023-02-15T09:16:24.929Z,14.70
2023-02-15T09:18:52.425Z,16.20
2023-02-15T09:21:24.596Z,16.80
2023-02-15T09:23:53.390Z,18.10
2023-02-15T09:26:22.593Z,17.40
2023-02-15T09:28:53.298Z,17.20
2023-02-15T09:31:22.622Z,17.30
2023-02-15T09:33:50.007Z,17.30
2023-02-15T09:36:22.464Z,17.70
2023-02-15T09:39:06.924Z,17.70
2023-02-15T09:41:55.216Z,17.80
2023-02-15T09:44:38.778Z,19.20
2023-02-15T09:47:31.407Z,18.40
2023-02-15T09:50:22.535Z,15.80
2023-02-15T09:53:13.651Z,18.20
2023-02-15T09:56:01.792Z,17.40
2023-02-15T09:58:51.418Z,17.20
2023-02-15T10:01:55.869Z,18.10
2023-02-15T10:04:41.561Z,18.20
2023-02-15T10:07:11.189Z,17.50
2023-02-15T10:09:43.696Z,15.80
2023-02-15T10:12:14.939Z,17.00
2023-02-15T10:14:53.058Z,14.50
2023-02-15T10:17:50.336Z,14.00
2023-02-15T10:20:29.335Z,15.40
2023-02-15T10:23:21.883Z,15.50
2023-02-15T10:26:14.119Z,14.50
2023-02-15T10:28:43.309Z,15.20
2023-02-15T10:31:22.144Z,15.10
2023-02-15T10:33:59.420Z,15.60
2023-02-15T10:36:44.316Z,15.60
2023-02-15T10:39:33.630Z,15.60
2023-02-15T10:44:52.781Z,16.70
2023-02-15T10:47:38.165Z,16.20
2023-02-15T10:50:14.840Z,16.30
2023-02-15T10:52:44.067Z,18.20
2023-02-15T10:58:17.889Z,18.90
2023-02-15T11:00:59.973Z,19.40
2023-02-15T11:03:44.783Z,19.40
2023-02-15T11:06:17.563Z,19.20
2023-02-15T11:08:47.616Z,18.50
2023-02-15T11:11:25.570Z,17.90
2023-02-15T11:13:57.816Z,19.20
2023-02-15T11:16:31.550Z,19.40
2023-02-15T11:19:25.972Z,18.20
2023-02-15T11:22:01.850Z,16.10
2023-02-15T11:24:31.770Z,17.10
2023-02-15T11:27:04.284Z,18.40
2023-02-15T11:29:47.292Z,18.30
2023-02-15T11:32:19.401Z,18.80
2023-02-15T11:35:12.189Z,20.00
2023-02-15T11:37:49.553Z,18.80
2023-02-15T11:40:23.264Z,20.40
2023-02-15T11:42:52.401Z,20.80
2023-02-15T11:45:22.751Z,18.70
2023-02-15T11:47:49.502Z,19.80
2023-02-15T11:50:19.163Z,19.00
2023-02-15T11:52:45.741Z,19.10
2023-02-15T11:55:20.211Z,19.40
2023-02-15T11:57:54.796Z,20.40
2023-02-15T12:00:32.176Z,21.00
2023-02-15T12:02:59.053Z,20.20
2023-02-15T12:05:27.008Z,19.70
2023-02-15T12:08:01.486Z,21.10
2023-02-15T12:10:54.084Z,20.60
2023-02-15T12:13:21.346Z,22.50
2023-02-15T12:15:51.858Z,24.30
2023-02-15T12:18:32.335Z,22.50
2023-02-15T12:21:03.100Z,21.80
2023-02-15T12:23:30.231Z,21.00
2023-02-15T12:25:58.193Z,19.10
2023-02-15T12:28:31.764Z,19.40
2023-02-15T12:30:59.472Z,19.00
2023-02-15T12:33:25.962Z,17.20
2023-02-15T12:36:20.361Z,18.90
2023-02-15T12:39:05.496Z,18.80
2023-02-15T12:41:31.979Z,18.00
2023-02-15T12:44:16.135Z,19.50
2023-02-15T12:46:42.678Z,19.00
2023-02-15T12:49:20.547Z,19.30
2023-02-15T12:51:53.323Z,19.70
2023-02-15T12:54:30.693Z,21.70
2023-02-15T12:56:57.913Z,21.40
2023-02-15T12:59:24.759Z,20.90
2023-02-15T13:01:53.649Z,22.10
2023-02-15T13:04:29.125Z,23.80
2023-02-15T13:07:00.526Z,18.00
2023-02-15T13:09:33.038Z,24.50
2023-02-15T13:12:26.820Z,24.40
2023-02-15T13:14:55.836Z,24.50
2023-02-15T13:17:29.218Z,28.00
2023-02-15T13:19:59.402Z,22.20
2023-02-15T13:23:00.354Z,21.70
2023-02-15T13:25:30.700Z,20.20
2023-02-15T13:28:02.692Z,21.30
2023-02-15T13:30:39.693Z,20.00
2023-02-15T13:33:13.715Z,20.80
2023-02-15T13:36:08.402Z,23.40
2023-02-15T13:38:53.586Z,22.30
2023-02-15T13:41:24.175Z,22.90
2023-02-15T13:44:06.827Z,23.20
2023-02-15T13:46:54.811Z,21.60
2023-02-15T13:49:45.994Z,23.30
2023-02-15T13:52:21.665Z,21.40
2023-02-15T13:54:48.076Z,21.40
2023-02-15T13:57:23.786Z,18.10
2023-02-15T14:00:13.459Z,18.70
2023-02-15T14:02:59.336Z,19.20
2023-02-15T14:05:44.817Z,21.50
2023-02-15T14:08:29.998Z,19.10
2023-02-15T14:11:11.700Z,19.30
2023-02-15T14:16:35.139Z,20.00
2023-02-15T14:19:21.248Z,20.60
2023-02-15T14:22:02.925Z,19.60
2023-02-15T14:24:42.784Z,19.90
2023-02-15T14:27:24.595Z,20.80
2023-02-15T14:32:42.024Z,20.80
2023-02-15T14:35:18.081Z,18.50
2023-02-15T14:37:50.410Z,19.80
2023-02-15T14:40:46.115Z,18.90
2023-02-15T14:43:21.647Z,16.10
2023-02-15T14:46:05.291Z,19.00
2023-02-15T14:48:40.127Z,18.90
2023-02-15T14:51:06.619Z,19.20
2023-02-15T14:53:33.127Z,19.60
2023-02-15T14:56:11.841Z,18.30
2023-02-15T14:58:39.118Z,17.60
2023-02-15T15:01:11.352Z,18.00
2023-02-15T15:03:50.510Z,17.30
2023-02-15T15:06:32.713Z,17.70
2023-02-15T15:09:12.947Z,16.30
2023-02-15T15:11:45.537Z,16.10
2023-02-15T15:14:34.816Z,16.00
2023-02-15T15:17:03.385Z,17.10
2023-02-15T15:19:51.866Z,18.30
2023-02-15T15:22:21.101Z,17.00
2023-02-15T15:24:50.611Z,16.90
2023-02-15T15:27:45.046Z,17.10
2023-02-15T15:30:14.308Z,15.50
2023-02-15T15:32:56.196Z,14.70
2023-02-15T15:38:29.146Z,17.10
2023-02-15T15:41:20.390Z,15.00
2023-02-15T15:44:26.992Z,18.70
2023-02-15T15:47:11.834Z,19.40
2023-02-15T15:49:39.748Z,21.40
2023-02-15T15:52:18.173Z,20.10
2023-02-15T15:54:47.716Z,18.80
2023-02-15T15:57:27.168Z,19.10
2023-02-15T15:59:55.518Z,18.30
2023-02-15T16:02:22.093Z,20.40
2023-02-15T16:04:48.643Z,20.60
2023-02-15T16:07:18.110Z,18.70
2023-02-15T16:10:02.977Z,18.40
2023-02-15T16:12:33.573Z,17.00
2023-02-15T16:15:05.287Z,16.20
2023-02-15T16:20:08.418Z,14.00
2023-02-15T16:22:35.072Z,14.50
2023-02-15T16:25:16.260Z,16.80
2023-02-15T16:27:44.523Z,16.50
2023-02-15T16:30:38.210Z,16.20
2023-02-15T16:33:15.861Z,21.00
2023-02-15T16:35:55.840Z,17.60
2023-02-15T16:38:35.632Z,18.00
2023-02-15T16:41:02.668Z,19.60
2023-02-15T16:43:32.770Z,20.30
2023-02-15T16:46:11.607Z,20.10
2023-02-15T16:48:44.208Z,19.50
2023-02-15T16:51:10.903Z,19.90
2023-02-15T16:53:38.345Z,19.50
2023-02-15T16:56:06.734Z,18.50
2023-02-15T16:58:54.524Z,18.20
2023-02-15T17:01:24.759Z,17.00
2023-02-15T17:04:10.770Z,18.80
2023-02-15T17:06:37.432Z,17.80
2023-02-15T17:09:06.584Z,18.50
2023-02-15T17:11:41.769Z,17.80
2023-02-15T17:14:12.202Z,16.70
2023-02-15T17:16:45.593Z,17.90
2023-02-15T17:19:18.342Z,18.50
2023-02-15T17:21:57.513Z,17.80
2023-02-15T17:24:30.083Z,18.90
2023-02-15T17:26:59.509Z,18.50
2023-02-15T17:29:39.197Z,16.90
2023-02-15T17:32:17.134Z,16.20
2023-02-15T17:35:04.285Z,18.10
2023-02-15T17:37:52.468Z,15.70
2023-02-15T17:40:22.876Z,16.80
2023-02-15T17:42:49.475Z,17.20
2023-02-15T17:45:17.266Z,15.70
2023-02-15T17:47:44.191Z,18.50
2023-02-15T17:50:20.289Z,19.20
2023-02-15T17:52:49.246Z,17.80
2023-02-15T17:55:20.064Z,20.00
2023-02-15T17:57:46.705Z,19.30
2023-02-15T18:00:15.395Z,18.50
2023-02-15T18:02:42.530Z,18.10
2023-02-15T18:05:18.489Z,19.00
2023-02-15T18:07:46.013Z,17.90
2023-02-15T18:10:15.899Z,17.10
2023-02-15T18:12:42.601Z,17.40
2023-02-15T18:15:12.328Z,17.70
2023-02-15T18:17:47.279Z,15.90
2023-02-15T18:20:28.384Z,18.30
2023-02-15T18:22:55.355Z,16.20
2023-02-15T18:25:23.284Z,16.50
2023-02-15T18:27:53.334Z,15.90
2023-02-15T18:30:23.869Z,14.90
2023-02-15T18:32:53.836Z,16.00
2023-02-15T18:35:24.315Z,15.90
2023-02-15T18:37:53.361Z,15.80
2023-02-15T18:40:22.102Z,15.50
2023-02-15T18:42:49.044Z,15.80
2023-02-15T18:45:15.607Z,14.90
2023-02-15T18:47:42.259Z,15.50
2023-02-15T18:50:09.125Z,16.10
2023-02-15T18:52:40.540Z,16.70
2023-02-15T18:55:19.381Z,14.80
2023-02-15T18:57:47.475Z,15.00
2023-02-15T19:00:19.332Z,15.30
2023-02-15T19:02:46.364Z,15.70
2023-02-15T19:05:12.978Z,15.50
2023-02-15T19:07:40.514Z,19.40
2023-02-15T19:10:13.774Z,18.70
2023-02-15T19:12:40.288Z,17.10
2023-02-15T19:15:07.074Z,17.60
2023-02-15T19:17:33.633Z,18.90
2023-02-15T19:20:00.107Z,19.20
2023-02-15T19:22:30.080Z,19.60
2023-02-15T19:24:59.352Z,19.10
2023-02-15T19:27:31.753Z,19.70
2023-02-15T19:30:08.009Z,20.80
2023-02-15T19:32:34.521Z,20.10
2023-02-15T19:35:01.003Z,22.20
2023-02-15T19:37:41.929Z,21.60
2023-02-15T19:40:18.819Z,19.30
2023-02-15T19:42:46.355Z,22.10
2023-02-15T19:45:24.893Z,21.10
2023-02-15T19:47:51.835Z,19.80
2023-02-15T19:50:20.495Z,20.60
2023-02-15T19:52:47.904Z,21.40
2023-02-15T19:55:31.578Z,21.10
2023-02-15T19:58:00.267Z,23.00
2023-02-15T20:00:32.231Z,24.80
2023-02-15T20:02:59.830Z,23.60
2023-02-15T20:05:31.274Z,24.70
2023-02-15T20:07:58.398Z,26.70
2023-02-15T20:10:29.242Z,25.30
2023-02-15T20:12:56.496Z,25.20
2023-02-15T20:15:25.466Z,26.10
2023-02-15T20:17:51.952Z,27.10
2023-02-15T20:20:18.851Z,26.90
2023-02-15T20:22:48.189Z,26.50
2023-02-15T20:25:26.387Z,25.40
2023-02-15T20:27:54.356Z,23.70
2023-02-15T20:30:27.012Z,25.00
2023-02-15T20:32:53.643Z,25.00
2023-02-15T20:35:22.556Z,26.20
2023-02-15T20:37:51.925Z,29.00
2023-02-15T20:40:21.458Z,28.00
2023-02-15T20:42:48.770Z,28.50
2023-02-15T20:45:16.334Z,25.00
2023-02-15T20:47:42.872Z,26.70
2023-02-15T20:50:09.620Z,24.40
2023-02-15T20:52:36.205Z,26.70
2023-02-15T20:55:02.797Z,25.60
2023-02-15T20:57:29.265Z,24.40
2023-02-15T20:59:55.819Z,23.60
2023-02-15T21:02:22.544Z,26.70
2023-02-15T21:04:49.708Z,23.20
2023-02-15T21:07:20.917Z,22.10
2023-02-15T21:09:48.296Z,23.20
2023-02-15T21:12:18.020Z,23.50
2023-02-15T21:14:45.168Z,23.00
2023-02-15T21:17:17.174Z,21.90
2023-02-15T21:19:44.011Z,22.70
2023-02-15T21:22:15.719Z,24.30
2023-02-15T21:24:51.606Z,29.40
2023-02-15T21:27:18.365Z,24.70
2023-02-15T21:29:44.874Z,27.70
2023-02-15T21:32:11.522Z,26.10
2023-02-15T21:34:38.097Z,28.30
2023-02-15T21:37:05.231Z,28.90
2023-02-15T21:39:35.660Z,29.20
2023-02-15T21:42:02.222Z,30.10
2023-02-15T21:44:28.743Z,33.00
2023-02-15T21:46:55.206Z,34.30
2023-02-15T21:49:21.672Z,34.20
2023-02-15T21:51:48.181Z,37.90
2023-02-15T21:54:17.211Z,33.80
2023-02-15T21:56:43.971Z,37.80
2023-02-15T21:59:15.696Z,37.20
2023-02-15T22:01:46.877Z,35.70
2023-02-15T22:04:22.789Z,36.40
2023-02-15T22:06:49.827Z,35.60
2023-02-15T22:09:18.799Z,36.30
2023-02-15T22:11:45.815Z,35.90
2023-02-15T22:14:39.387Z,38.00
2023-02-15T22:17:17.150Z,32.20
2023-02-15T22:19:46.045Z,35.10
2023-02-15T22:22:13.380Z,31.80
2023-02-15T22:24:40.757Z,32.20
2023-02-15T22:27:15.978Z,30.90
2023-02-15T22:29:42.634Z,31.90
2023-02-15T22:32:18.069Z,32.40
2023-02-15T22:34:44.894Z,32.10
2023-02-15T22:37:11.374Z,34.20
2023-02-15T22:39:38.035Z,33.20
2023-02-15T22:42:05.143Z,30.50
2023-02-15T22:44:34.966Z,30.90
2023-02-15T22:47:01.541Z,29.70
2023-02-15T22:49:28.264Z,29.70
2023-02-15T22:51:54.762Z,30.00
2023-02-15T22:54:21.248Z,29.40
2023-02-15T22:56:51.579Z,30.10
2023-02-15T22:59:27.206Z,27.40
2023-02-15T23:01:54.054Z,28.60
2023-02-15T23:04:27.038Z,31.10
2023-02-15T23:06:54.663Z,31.90
2023-02-15T23:09:22.188Z,32.60
2023-02-15T23:11:51.076Z,29.60
2023-02-15T23:14:35.601Z,29.70
2023-02-15T23:17:02.677Z,28.60
2023-02-15T23:19:29.242Z,29.00
2023-02-15T23:21:55.822Z,28.30
2023-02-15T23:24:26.221Z,29.20
2023-02-15T23:26:53.230Z,29.30
2023-02-15T23:29:24.095Z,27.10
2023-02-15T23:31:53.559Z,28.90
2023-02-15T23:34:24.348Z,27.50
2023-02-15T23:36:50.920Z,30.00
2023-02-15T23:39:26.360Z,29.40
2023-02-15T23:41:52.863Z,27.70
2023-02-15T23:44:19.730Z,29.20
2023-02-15T23:46:46.943Z,29.20
2023-02-15T23:49:15.401Z,29.90
2023-02-15T23:51:45.099Z,29.60
2023-02-15T23:54:12.313Z,29.00
2023-02-15T23:56:39.401Z,31.90
2023-02-15T23:59:06.692Z,32.30
